Time;durP1;ratioP1;P1;durP2;ratioP2;P2;SDS_P1;SDS_P2;PMS_P1;PMS_P2;Temp;Humidity;BMP_temperature;BMP_pressure;BME280_temperature;BME280_humidity;BME280_pressure;Samples;Min_cycle;Max_cycle;Signal;HPM_P1;HPM_P2
2022/10/15 00:01:06;;;;;;;31.30;23.38;;;;;;;;;;10101317;28;20500;-69
2022/10/15 00:06:04;;;;;;;26.83;21.55;;;;;;;;;;10108513;28;20061;-69
2022/10/15 00:11:06;;;;;;;27.38;23.52;;;;;;;;;;10105642;28;20665;-69
2022/10/15 00:16:00;;;;;;;31.85;24.45;;;;;;;;;;10096410;28;20064;-68
2022/10/15 00:20:54;;;;;;;35.22;25.13;;;;;;;;;;10105233;28;20053;-68
2022/10/15 00:25:47;;;;;;;35.00;24.50;;;;;;;;;;10100143;28;20053;-68
2022/10/15 00:30:41;;;;;;;36.10;25.40;;;;;;;;;;10106657;28;20049;-68
2022/10/15 00:35:35;;;;;;;41.40;23.77;;;;;;;;;;10109216;28;20099;-68
2022/10/15 00:40:28;;;;;;;34.28;24.98;;;;;;;;;;10108892;28;20059;-69
2022/10/15 00:45:22;;;;;;;34.28;25.58;;;;;;;;;;10099559;28;20057;-68
2022/10/15 00:50:24;;;;;;;29.42;22.92;;;;;;;;;;10108046;28;20491;-68
2022/10/15 00:55:38;;;;;;;31.58;24.50;;;;;;;;;;10100133;28;20040;-68
2022/10/15 01:00:31;;;;;;;33.03;22.90;;;;;;;;;;10080468;28;20049;-68
2022/10/15 01:05:24;;;;;;;30.92;21.80;;;;;;;;;;10093237;28;20492;-68
2022/10/15 01:10:19;;;;;;;33.22;23.33;;;;;;;;;;10106691;28;20393;-68
2022/10/15 01:15:34;;;;;;;31.58;24.00;;;;;;;;;;10086745;28;20078;-68
2022/10/15 01:20:44;;;;;;;31.15;22.08;;;;;;;;;;10089160;28;20558;-69
2022/10/15 01:26:26;;;;;;;29.10;23.95;;;;;;;;;;10104930;28;20441;-68
2022/10/15 01:31:44;;;;;;;38.85;25.33;;;;;;;;;;10095021;28;20057;-69
2022/10/15 01:36:47;;;;;;;39.70;26.73;;;;;;;;;;10077305;28;20060;-68
2022/10/15 01:41:46;;;;;;;38.47;26.45;;;;;;;;;;10093859;28;20029;-69
2022/10/15 01:46:48;;;;;;;34.33;26.55;;;;;;;;;;10089111;28;20057;-68
2022/10/15 01:51:45;;;;;;;37.63;26.02;;;;;;;;;;10084159;28;20630;-68
2022/10/15 01:56:39;;;;;;;37.17;25.75;;;;;;;;;;10106381;28;20076;-68
2022/10/15 02:01:31;;;;;;;34.15;23.30;;;;;;;;;;10105264;28;20045;-69
2022/10/15 02:06:33;;;;;;;33.17;22.33;;;;;;;;;;10084334;28;20106;-69
2022/10/15 02:11:26;;;;;;;27.92;23.20;;;;;;;;;;10088958;28;20045;-68
2022/10/15 02:16:52;;;;;;;32.10;22.08;;;;;;;;;;10095696;28;20044;-69
2022/10/15 02:21:49;;;;;;;33.22;21.30;;;;;;;;;;10058808;28;20118;-68
2022/10/15 02:26:44;;;;;;;38.83;23.90;;;;;;;;;;10120700;28;20045;-68
2022/10/15 02:31:42;;;;;;;31.05;22.25;;;;;;;;;;10084185;28;20045;-68
2022/10/15 02:36:38;;;;;;;30.85;22.65;;;;;;;;;;10102602;28;20056;-68
2022/10/15 02:41:33;;;;;;;33.22;25.73;;;;;;;;;;10103333;28;20080;-68
2022/10/15 02:46:27;;;;;;;34.60;25.33;;;;;;;;;;10076333;28;20144;-68
2022/10/15 02:51:20;;;;;;;35.45;26.17;;;;;;;;;;10093590;28;20037;-68
2022/10/15 02:56:14;;;;;;;30.20;24.05;;;;;;;;;;10108922;28;20106;-68
2022/10/15 03:01:09;;;;;;;32.53;23.25;;;;;;;;;;10109809;28;20086;-68
2022/10/15 03:06:03;;;;;;;28.92;24.33;;;;;;;;;;10099082;28;20068;-68
2022/10/15 03:11:00;;;;;;;29.77;23.25;;;;;;;;;;10102833;28;20060;-68
2022/10/15 03:15:53;;;;;;;30.25;22.48;;;;;;;;;;10105032;28;20053;-67
2022/10/15 03:20:57;;;;;;;31.73;23.00;;;;;;;;;;10103131;28;20051;-68
2022/10/15 03:25:51;;;;;;;32.00;23.10;;;;;;;;;;10104650;28;20032;-68
2022/10/15 03:30:46;;;;;;;29.85;22.17;;;;;;;;;;10104779;28;20045;-68
2022/10/15 03:35:42;;;;;;;30.83;22.17;;;;;;;;;;10123952;28;20049;-69
2022/10/15 03:40:36;;;;;;;34.97;23.08;;;;;;;;;;10108317;28;20107;-68
2022/10/15 03:45:41;;;;;;;28.13;21.73;;;;;;;;;;10117190;28;20056;-68
2022/10/15 03:50:43;;;;;;;35.35;22.33;;;;;;;;;;10102121;28;20148;-69
2022/10/15 03:55:41;;;;;;;31.92;21.70;;;;;;;;;;10108788;28;20049;-68
2022/10/15 04:00:34;;;;;;;45.85;23.52;;;;;;;;;;10104840;28;20103;-68
2022/10/15 04:05:28;;;;;;;27.95;21.48;;;;;;;;;;10100100;28;20037;-68
2022/10/15 04:10:30;;;;;;;30.80;21.30;;;;;;;;;;10101900;28;20059;-67
2022/10/15 04:15:26;;;;;;;30.00;23.90;;;;;;;;;;10102297;28;20048;-68
2022/10/15 04:20:25;;;;;;;26.73;21.63;;;;;;;;;;10104841;28;20487;-68
2022/10/15 04:25:19;;;;;;;33.78;23.88;;;;;;;;;;10104700;28;20045;-70
2022/10/15 04:30:14;;;;;;;31.73;23.88;;;;;;;;;;10099160;28;20033;-68
2022/10/15 04:35:15;;;;;;;40.05;25.70;;;;;;;;;;10107886;28;20045;-68
2022/10/15 04:40:17;;;;;;;32.53;22.75;;;;;;;;;;10097722;28;20052;-68
2022/10/15 04:45:12;;;;;;;40.08;24.55;;;;;;;;;;10098989;28;20064;-67
2022/10/15 04:50:06;;;;;;;31.00;22.35;;;;;;;;;;10099132;28;20486;-68
2022/10/15 04:55:18;;;;;;;30.33;22.77;;;;;;;;;;10105123;28;20130;-67
2022/10/15 05:00:15;;;;;;;29.10;21.27;;;;;;;;;;10089461;28;20057;-67
2022/10/15 05:05:27;;;;;;;32.30;22.33;;;;;;;;;;10103590;28;20060;-68
2022/10/15 05:10:24;;;;;;;29.13;22.88;;;;;;;;;;10101140;28;20051;-67
2022/10/15 05:15:17;;;;;;;35.00;22.05;;;;;;;;;;10107673;28;20052;-67
2022/10/15 05:20:11;;;;;;;27.20;20.90;;;;;;;;;;10103024;28;20057;-68
2022/10/15 05:25:08;;;;;;;28.10;21.58;;;;;;;;;;10094165;28;20059;-68
2022/10/15 05:30:04;;;;;;;26.92;20.15;;;;;;;;;;10092070;28;20128;-67
2022/10/15 05:35:10;;;;;;;25.73;20.70;;;;;;;;;;10095022;28;20053;-68
2022/10/15 05:40:23;;;;;;;32.28;22.15;;;;;;;;;;10092264;28;20052;-68
2022/10/15 05:45:31;;;;;;;31.75;21.83;;;;;;;;;;10092682;28;20045;-68
2022/10/15 05:50:30;;;;;;;40.07;24.37;;;;;;;;;;10093350;28;20048;-71
2022/10/15 05:55:26;;;;;;;34.10;21.75;;;;;;;;;;10102600;28;20416;-69
2022/10/15 06:00:20;;;;;;;33.00;23.02;;;;;;;;;;10102019;28;20091;-69
2022/10/15 06:05:16;;;;;;;31.95;22.10;;;;;;;;;;10097820;28;20141;-70
2022/10/15 06:10:11;;;;;;;24.83;21.17;;;;;;;;;;10091672;28;20056;-69
2022/10/15 06:15:06;;;;;;;26.23;21.38;;;;;;;;;;10094600;28;20061;-68
2022/10/15 06:20:01;;;;;;;26.52;20.15;;;;;;;;;;10099411;28;20143;-68
2022/10/15 06:24:55;;;;;;;35.38;21.98;;;;;;;;;;10100528;28;20095;-68
2022/10/15 06:29:50;;;;;;;25.48;19.48;;;;;;;;;;10096175;28;20087;-69
2022/10/15 06:34:44;;;;;;;28.30;19.20;;;;;;;;;;10099257;28;20118;-68
2022/10/15 06:39:39;;;;;;;26.25;18.67;;;;;;;;;;10092246;28;20111;-68
2022/10/15 06:44:33;;;;;;;25.65;19.70;;;;;;;;;;10096251;28;20075;-69
2022/10/15 06:49:27;;;;;;;26.85;21.52;;;;;;;;;;10093900;28;20056;-72
2022/10/15 06:54:21;;;;;;;29.08;19.92;;;;;;;;;;10096461;28;20052;-74
2022/10/15 06:59:14;;;;;;;29.10;19.02;;;;;;;;;;10095711;28;20079;-71
2022/10/15 07:04:08;;;;;;;26.05;19.83;;;;;;;;;;10098296;28;20095;-73
2022/10/15 07:09:04;;;;;;;23.75;18.60;;;;;;;;;;10099803;28;20050;-73
2022/10/15 07:13:57;;;;;;;25.67;18.10;;;;;;;;;;10096767;28;20140;-72
2022/10/15 07:18:52;;;;;;;26.38;17.65;;;;;;;;;;10096212;28;20061;-77
2022/10/15 07:23:46;;;;;;;27.45;17.20;;;;;;;;;;10099161;28;20136;-75
2022/10/15 07:28:39;;;;;;;23.50;17.45;;;;;;;;;;10098979;28;20087;-74
2022/10/15 07:33:36;;;;;;;22.02;18.38;;;;;;;;;;10095514;28;20118;-75
2022/10/15 07:38:30;;;;;;;28.52;18.27;;;;;;;;;;10096186;28;20096;-76
2022/10/15 07:43:24;;;;;;;24.10;18.60;;;;;;;;;;10100988;28;20044;-76
2022/10/15 07:48:18;;;;;;;29.38;19.45;;;;;;;;;;10102245;28;20061;-70
2022/10/15 07:53:12;;;;;;;33.15;23.20;;;;;;;;;;10101182;28;20148;-78
2022/10/15 07:58:08;;;;;;;32.20;20.25;;;;;;;;;;10103412;28;20075;-79
2022/10/15 08:03:02;;;;;;;25.73;21.15;;;;;;;;;;10102159;28;20051;-77
2022/10/15 08:07:56;;;;;;;24.75;18.35;;;;;;;;;;10103163;28;20088;-77
2022/10/15 08:12:49;;;;;;;22.33;13.63;;;;;;;;;;10100501;28;20454;-81
2022/10/15 08:17:44;;;;;;;18.08;13.73;;;;;;;;;;10097373;28;20064;-81
2022/10/15 08:22:40;;;;;;;22.10;14.77;;;;;;;;;;10096713;28;20160;-79
2022/10/15 08:27:35;;;;;;;29.58;25.20;;;;;;;;;;10106317;28;20049;-80
2022/10/15 08:32:29;;;;;;;38.95;26.55;;;;;;;;;;10102949;28;20081;-80
2022/10/15 08:37:23;;;;;;;27.25;18.83;;;;;;;;;;10101180;28;20056;-80
2022/10/15 08:42:28;;;;;;;25.85;18.50;;;;;;;;;;10102549;28;20144;-80
2022/10/15 08:47:30;;;;;;;25.52;20.77;;;;;;;;;;10105875;28;20055;-80
2022/10/15 08:52:31;;;;;;;32.85;21.63;;;;;;;;;;10102464;28;20048;-80
2022/10/15 08:57:38;;;;;;;31.15;22.90;;;;;;;;;;10102199;28;20553;-81
2022/10/15 09:02:41;;;;;;;33.88;23.60;;;;;;;;;;10100735;28;20098;-80
2022/10/15 09:08:03;;;;;;;32.28;21.95;;;;;;;;;;10092160;28;20139;-80
2022/10/15 09:13:03;;;;;;;28.10;23.80;;;;;;;;;;10080090;28;20057;-81
2022/10/15 09:17:57;;;;;;;36.50;24.58;;;;;;;;;;10086912;28;20053;-80
2022/10/15 09:22:57;;;;;;;31.92;23.88;;;;;;;;;;10093182;28;20136;-74
2022/10/15 09:27:51;;;;;;;29.98;24.77;;;;;;;;;;10119896;28;20048;-71
2022/10/15 09:33:05;;;;;;;36.63;23.02;;;;;;;;;;10104779;28;20087;-69
2022/10/15 09:38:18;;;;;;;33.85;21.42;;;;;;;;;;10102753;28;20063;-69
2022/10/15 09:43:12;;;;;;;32.20;21.35;;;;;;;;;;10099423;28;20036;-68
2022/10/15 09:48:15;;;;;;;36.45;29.60;;;;;;;;;;10105215;28;20411;-71
2022/10/15 09:53:44;;;;;;;34.53;24.65;;;;;;;;;;10116922;28;20049;-70
2022/10/15 09:59:03;;;;;;;25.92;22.20;;;;;;;;;;10086202;28;20091;-70
2022/10/15 10:04:19;;;;;;;28.98;22.85;;;;;;;;;;10099130;28;20128;-70
2022/10/15 10:09:24;;;;;;;35.00;22.50;;;;;;;;;;10099947;28;20072;-70
2022/10/15 10:14:33;;;;;;;26.42;21.80;;;;;;;;;;10096808;28;20048;-69
2022/10/15 10:19:27;;;;;;;29.05;22.02;;;;;;;;;;10112734;28;20118;-70
2022/10/15 10:24:33;;;;;;;34.80;23.45;;;;;;;;;;10098905;28;20051;-72
2022/10/15 10:29:38;;;;;;;32.33;21.60;;;;;;;;;;10100834;28;20052;-70
2022/10/15 10:34:32;;;;;;;31.92;23.55;;;;;;;;;;10103090;28;20416;-70
2022/10/15 10:39:27;;;;;;;30.35;23.20;;;;;;;;;;10097534;28;20048;-71
2022/10/15 10:44:41;;;;;;;28.95;21.52;;;;;;;;;;10101182;28;20048;-71
2022/10/15 10:49:51;;;;;;;29.00;20.05;;;;;;;;;;10099325;28;20045;-72
2022/10/15 10:54:45;;;;;;;40.40;22.35;;;;;;;;;;10094613;28;20052;-73
2022/10/15 10:59:51;;;;;;;25.80;20.77;;;;;;;;;;10097631;28;20389;-73
2022/10/15 11:04:45;;;;;;;33.67;22.55;;;;;;;;;;10097729;28;20052;-72
2022/10/15 11:09:57;;;;;;;26.38;20.45;;;;;;;;;;10097435;28;20492;-71
2022/10/15 11:15:13;;;;;;;23.60;19.55;;;;;;;;;;10105396;28;20079;-72
2022/10/15 11:20:12;;;;;;;21.20;17.88;;;;;;;;;;10102969;28;20041;-72
2022/10/15 11:25:34;;;;;;;26.75;19.58;;;;;;;;;;10108851;28;20067;-74
2022/10/15 11:30:38;;;;;;;23.55;17.65;;;;;;;;;;10107283;28;20037;-74
2022/10/15 11:35:51;;;;;;;23.60;17.67;;;;;;;;;;10119817;28;20622;-73
2022/10/15 11:40:51;;;;;;;23.13;18.13;;;;;;;;;;10104400;28;20045;-73
2022/10/15 11:46:01;;;;;;;26.13;17.15;;;;;;;;;;10106574;28;20073;-74
2022/10/15 11:51:13;;;;;;;17.55;14.85;;;;;;;;;;10105381;28;20049;-75
2022/10/15 11:56:33;;;;;;;22.80;15.43;;;;;;;;;;10101645;28;20049;-72
2022/10/15 12:02:12;;;;;;;17.85;15.52;;;;;;;;;;10092945;28;20076;-73
2022/10/15 12:07:31;;;;;;;21.50;15.88;;;;;;;;;;10105206;28;20095;-74
2022/10/15 12:12:40;;;;;;;22.17;15.55;;;;;;;;;;10107947;28;20041;-74
2022/10/15 12:18:19;;;;;;;26.75;17.95;;;;;;;;;;10097745;28;20534;-74
2022/10/15 12:23:35;;;;;;;21.52;15.10;;;;;;;;;;10099267;28;20067;-73
2022/10/15 12:28:30;;;;;;;27.50;15.88;;;;;;;;;;10100416;28;20064;-74
2022/10/15 12:33:25;;;;;;;26.08;16.20;;;;;;;;;;10098915;28;20080;-73
2022/10/15 12:38:54;;;;;;;24.77;16.85;;;;;;;;;;10104680;28;20092;-74
2022/10/15 12:44:19;;;;;;;16.85;14.55;;;;;;;;;;10089772;28;20053;-74
2022/10/15 12:49:25;;;;;;;22.65;15.60;;;;;;;;;;10103991;28;20037;-73
2022/10/15 12:54:45;;;;;;;24.50;14.18;;;;;;;;;;10103964;28;20508;-70
2022/10/15 12:59:42;;;;;;;13.05;10.57;;;;;;;;;;10093194;28;20075;-70
2022/10/15 13:04:38;;;;;;;19.90;9.88;;;;;;;;;;10086047;28;20061;-71
2022/10/15 13:09:31;;;;;;;16.58;11.30;;;;;;;;;;10102223;28;20060;-69
2022/10/15 13:14:49;;;;;;;9.10;8.00;;;;;;;;;;10103209;28;20772;-69
2022/10/15 13:19:47;;;;;;;19.25;9.00;;;;;;;;;;10097959;28;20049;-68
2022/10/15 13:24:46;;;;;;;10.50;8.95;;;;;;;;;;10103058;28;20515;-68
2022/10/15 13:29:39;;;;;;;10.35;6.63;;;;;;;;;;10102761;28;20460;-68
2022/10/15 13:34:37;;;;;;;10.93;6.45;;;;;;;;;;10109168;28;20045;-68
2022/10/15 13:39:36;;;;;;;12.90;6.57;;;;;;;;;;10098990;28;20045;-68
2022/10/15 13:44:30;;;;;;;15.10;9.23;;;;;;;;;;10102559;28;20049;-68
2022/10/15 13:49:24;;;;;;;14.52;9.27;;;;;;;;;;10100490;28;20049;-67
2022/10/15 13:54:26;;;;;;;12.25;9.15;;;;;;;;;;10095312;28;20056;-70
2022/10/15 13:59:21;;;;;;;13.25;8.45;;;;;;;;;;10095710;28;20080;-69
2022/10/15 14:04:18;;;;;;;17.65;9.68;;;;;;;;;;10091945;28;20479;-66
2022/10/15 14:09:25;;;;;;;15.68;9.88;;;;;;;;;;10102555;28;20089;-67
2022/10/15 14:14:36;;;;;;;9.20;6.22;;;;;;;;;;10094249;28;20140;-67
2022/10/15 14:19:30;;;;;;;16.35;10.82;;;;;;;;;;10100204;28;20081;-68
2022/10/15 14:24:33;;;;;;;11.50;9.18;;;;;;;;;;10098147;28;20503;-75
2022/10/15 14:29:29;;;;;;;10.27;8.80;;;;;;;;;;10114956;28;20049;-70
2022/10/15 14:34:34;;;;;;;12.23;7.70;;;;;;;;;;10095214;28;20124;-69
2022/10/15 14:39:35;;;;;;;17.70;10.15;;;;;;;;;;10100436;28;20045;-70
2022/10/15 14:44:45;;;;;;;10.70;8.15;;;;;;;;;;10095886;28;20072;-70
2022/10/15 14:49:39;;;;;;;9.57;7.82;;;;;;;;;;10092788;28;20496;-70
2022/10/15 14:54:41;;;;;;;12.27;7.90;;;;;;;;;;10100471;28;20056;-71
2022/10/15 14:59:36;;;;;;;12.35;6.78;;;;;;;;;;10091650;28;20054;-72
2022/10/15 15:04:41;;;;;;;9.85;7.25;;;;;;;;;;10095179;28;20053;-68
2022/10/15 15:09:38;;;;;;;12.23;6.00;;;;;;;;;;10091537;28;20124;-68
2022/10/15 15:14:32;;;;;;;10.18;7.18;;;;;;;;;;10092759;28;20048;-70
2022/10/15 15:19:26;;;;;;;8.75;6.03;;;;;;;;;;10076766;28;20052;-71
2022/10/15 15:24:20;;;;;;;13.43;9.02;;;;;;;;;;10095764;28;20041;-69
2022/10/15 15:29:13;;;;;;;14.48;9.45;;;;;;;;;;10093904;28;20081;-69
2022/10/15 15:34:09;;;;;;;10.85;7.80;;;;;;;;;;10099219;28;20063;-71
2022/10/15 15:39:04;;;;;;;10.23;7.95;;;;;;;;;;10093124;28;20115;-71
2022/10/15 15:43:59;;;;;;;10.93;7.70;;;;;;;;;;10091807;28;20049;-71
2022/10/15 15:48:53;;;;;;;19.90;8.63;;;;;;;;;;10101883;28;20048;-74
2022/10/15 15:53:47;;;;;;;12.43;7.25;;;;;;;;;;10093520;28;20057;-71
2022/10/15 15:58:41;;;;;;;11.65;7.30;;;;;;;;;;10097520;28;20496;-73
2022/10/15 16:03:35;;;;;;;10.27;6.07;;;;;;;;;;10100666;28;20109;-73
2022/10/15 16:08:29;;;;;;;9.63;7.20;;;;;;;;;;10107782;28;20060;-73
2022/10/15 16:13:23;;;;;;;10.20;7.35;;;;;;;;;;10104880;28;20408;-73
2022/10/15 16:18:18;;;;;;;12.00;6.72;;;;;;;;;;10101636;28;20049;-73
2022/10/15 16:23:12;;;;;;;6.78;6.07;;;;;;;;;;10104084;28;20090;-69
2022/10/15 16:28:06;;;;;;;8.75;6.53;;;;;;;;;;10099373;28;20053;-70
2022/10/15 16:32:59;;;;;;;9.23;5.80;;;;;;;;;;10103460;28;20064;-71
2022/10/15 16:37:55;;;;;;;8.80;6.00;;;;;;;;;;10106176;28;20508;-71
2022/10/15 16:42:49;;;;;;;9.65;6.32;;;;;;;;;;10104015;28;20659;-71
2022/10/15 16:47:44;;;;;;;10.88;7.45;;;;;;;;;;10102801;28;20123;-71
2022/10/15 16:52:38;;;;;;;16.15;6.80;;;;;;;;;;10104693;28;20049;-73
2022/10/15 16:57:31;;;;;;;10.35;6.15;;;;;;;;;;10098694;28;20102;-76
2022/10/15 17:02:25;;;;;;;8.88;7.75;;;;;;;;;;10088228;28;20072;-77
2022/10/15 17:07:19;;;;;;;10.90;9.23;;;;;;;;;;10078438;28;20049;-79
2022/10/15 17:12:15;;;;;;;18.02;9.38;;;;;;;;;;10078266;28;20521;-76
2022/10/15 17:17:09;;;;;;;15.23;9.48;;;;;;;;;;10091233;28;20092;-77
2022/10/15 17:22:01;;;;;;;22.83;10.13;;;;;;;;;;10093189;28;20061;-78
2022/10/15 17:26:56;;;;;;;18.38;10.98;;;;;;;;;;10091841;28;20074;-78
2022/10/15 17:31:52;;;;;;;16.88;11.23;;;;;;;;;;10100219;28;20411;-76
2022/10/15 17:36:49;;;;;;;19.80;13.63;;;;;;;;;;10093441;28;20051;-78
2022/10/15 17:41:43;;;;;;;19.42;13.88;;;;;;;;;;10095374;28;20045;-78
2022/10/15 17:46:37;;;;;;;21.10;13.38;;;;;;;;;;10097168;28;20049;-77
2022/10/15 17:51:33;;;;;;;17.52;12.27;;;;;;;;;;10100166;28;20448;-77
2022/10/15 17:56:30;;;;;;;20.20;14.00;;;;;;;;;;10098132;28;20483;-80
2022/10/15 18:01:26;;;;;;;32.88;11.65;;;;;;;;;;10096456;28;20128;-80
2022/10/15 18:06:41;;;;;;;24.00;11.63;;;;;;;;;;10102777;28;20484;-79
2022/10/15 18:11:37;;;;;;;20.95;13.63;;;;;;;;;;10102632;28;20102;-78
2022/10/15 18:16:31;;;;;;;20.30;13.13;;;;;;;;;;10102824;28;20057;-78
2022/10/15 18:21:26;;;;;;;21.30;13.23;;;;;;;;;;10100556;28;20119;-77
2022/10/15 18:26:22;;;;;;;17.30;11.43;;;;;;;;;;10098863;28;20099;-77
2022/10/15 18:31:16;;;;;;;15.60;12.07;;;;;;;;;;10097893;28;20598;-77
2022/10/15 18:36:13;;;;;;;17.63;12.43;;;;;;;;;;10092771;28;20060;-77
2022/10/15 18:41:36;;;;;;;14.60;12.63;;;;;;;;;;10087854;28;20500;-79
2022/10/15 18:46:32;;;;;;;20.70;12.85;;;;;;;;;;10091013;28;20033;-77
2022/10/15 18:51:30;;;;;;;24.57;13.20;;;;;;;;;;10097022;28;20505;-77
2022/10/15 18:56:25;;;;;;;13.45;11.85;;;;;;;;;;10097185;28;20458;-78
2022/10/15 19:01:28;;;;;;;21.48;13.50;;;;;;;;;;10101255;28;20061;-78
2022/10/15 19:06:28;;;;;;;19.73;13.00;;;;;;;;;;10089712;28;20404;-79
2022/10/15 19:11:23;;;;;;;19.30;14.13;;;;;;;;;;10095705;28;20124;-77
2022/10/15 19:16:22;;;;;;;19.65;12.95;;;;;;;;;;10092843;28;20128;-78
2022/10/15 19:21:26;;;;;;;18.95;13.52;;;;;;;;;;10096318;28;20159;-78
2022/10/15 19:26:22;;;;;;;20.08;13.93;;;;;;;;;;10086926;28;20501;-80
2022/10/15 19:31:45;;;;;;;16.43;13.87;;;;;;;;;;10093978;28;20096;-80
2022/10/15 19:36:43;;;;;;;22.70;13.60;;;;;;;;;;10120277;28;20077;-79
2022/10/15 19:41:37;;;;;;;23.85;15.38;;;;;;;;;;10103251;28;20057;-79
2022/10/15 19:46:31;;;;;;;19.23;14.13;;;;;;;;;;10102119;28;20048;-77
2022/10/15 19:51:25;;;;;;;23.35;16.45;;;;;;;;;;10106521;28;20389;-77
2022/10/15 19:56:18;;;;;;;21.73;13.98;;;;;;;;;;10095790;28;20072;-79
2022/10/15 20:01:13;;;;;;;20.08;15.73;;;;;;;;;;10107287;28;20045;-78
2022/10/15 20:06:07;;;;;;;14.95;12.25;;;;;;;;;;10106488;28;20407;-78
2022/10/15 20:11:00;;;;;;;18.50;13.10;;;;;;;;;;10102780;28;20080;-73
2022/10/15 20:15:54;;;;;;;18.67;13.45;;;;;;;;;;10106734;28;20045;-72
2022/10/15 20:20:48;;;;;;;14.32;11.63;;;;;;;;;;10104749;28;20492;-74
2022/10/15 20:25:42;;;;;;;19.73;13.90;;;;;;;;;;10100586;28;20053;-76
2022/10/15 20:30:40;;;;;;;19.63;13.32;;;;;;;;;;10107002;28;20049;-75
2022/10/15 20:35:34;;;;;;;16.95;12.50;;;;;;;;;;10105694;28;20064;-76
2022/10/15 20:40:28;;;;;;;13.10;10.75;;;;;;;;;;10105652;28;20055;-74
2022/10/15 20:45:22;;;;;;;15.40;11.40;;;;;;;;;;10105927;28;20072;-74
2022/10/15 20:50:19;;;;;;;17.05;12.00;;;;;;;;;;10102314;28;20099;-75
2022/10/15 20:55:14;;;;;;;13.52;11.68;;;;;;;;;;10106426;28;20045;-77
2022/10/15 21:00:16;;;;;;;14.68;11.75;;;;;;;;;;10106279;28;20128;-78
2022/10/15 21:05:11;;;;;;;16.25;11.20;;;;;;;;;;10099740;28;20615;-77
2022/10/15 21:10:10;;;;;;;14.77;11.55;;;;;;;;;;10102452;28;20084;-75
2022/10/15 21:15:08;;;;;;;15.55;11.68;;;;;;;;;;10103906;28;20484;-77
2022/10/15 21:20:04;;;;;;;17.17;11.82;;;;;;;;;;10119000;28;20053;-76
2022/10/15 21:25:00;;;;;;;17.67;11.88;;;;;;;;;;10093621;28;20549;-77
2022/10/15 21:29:57;;;;;;;14.90;11.75;;;;;;;;;;10105604;28;20053;-75
2022/10/15 21:34:51;;;;;;;15.25;11.75;;;;;;;;;;10097100;28;20064;-75
2022/10/15 21:39:45;;;;;;;17.38;12.60;;;;;;;;;;10096299;28;20098;-74
2022/10/15 21:44:38;;;;;;;19.73;12.00;;;;;;;;;;10097352;28;20040;-74
2022/10/15 21:49:32;;;;;;;22.77;13.18;;;;;;;;;;10097252;28;20078;-74
2022/10/15 21:54:26;;;;;;;19.95;14.15;;;;;;;;;;10091476;28;20115;-76
2022/10/15 21:59:20;;;;;;;15.15;13.38;;;;;;;;;;10087466;28;20140;-75
2022/10/15 22:04:14;;;;;;;17.48;12.52;;;;;;;;;;10095185;28;20633;-74
2022/10/15 22:09:09;;;;;;;17.08;11.65;;;;;;;;;;10094720;28;20136;-74
2022/10/15 22:14:04;;;;;;;13.73;11.35;;;;;;;;;;10098191;28;20053;-74
2022/10/15 22:18:59;;;;;;;17.23;13.15;;;;;;;;;;10092445;28;20088;-76
2022/10/15 22:23:55;;;;;;;23.25;14.35;;;;;;;;;;10100924;28;20415;-74
2022/10/15 22:28:49;;;;;;;20.63;13.48;;;;;;;;;;10103610;28;20072;-75
2022/10/15 22:33:44;;;;;;;21.98;13.55;;;;;;;;;;10100972;28;20053;-74
2022/10/15 22:38:37;;;;;;;14.88;13.25;;;;;;;;;;10098904;28;20051;-74
2022/10/15 22:43:32;;;;;;;20.17;13.85;;;;;;;;;;10098228;28;20061;-75
2022/10/15 22:48:27;;;;;;;19.73;13.73;;;;;;;;;;10097625;28;20492;-75
2022/10/15 22:53:20;;;;;;;14.63;11.73;;;;;;;;;;10097899;28;20073;-76
2022/10/15 22:58:14;;;;;;;16.83;13.25;;;;;;;;;;10100137;28;20514;-75
2022/10/15 23:03:07;;;;;;;15.48;13.38;;;;;;;;;;10101756;28;20037;-75
2022/10/15 23:08:02;;;;;;;15.52;13.93;;;;;;;;;;10100313;28;20083;-75
2022/10/15 23:12:55;;;;;;;15.77;13.57;;;;;;;;;;10111786;28;20118;-75
2022/10/15 23:17:49;;;;;;;24.67;15.00;;;;;;;;;;10109848;28;20061;-75
2022/10/15 23:22:42;;;;;;;19.35;14.15;;;;;;;;;;10109487;28;20060;-76
2022/10/15 23:27:36;;;;;;;20.20;14.52;;;;;;;;;;10086947;28;20063;-77
2022/10/15 23:32:30;;;;;;;18.92;14.50;;;;;;;;;;10107356;28;20392;-76
2022/10/15 23:37:25;;;;;;;18.27;16.00;;;;;;;;;;10110338;28;20052;-77
2022/10/15 23:42:19;;;;;;;20.05;13.88;;;;;;;;;;10112422;28;20069;-76
2022/10/15 23:47:13;;;;;;;18.92;13.10;;;;;;;;;;10111053;28;20049;-76
2022/10/15 23:52:07;;;;;;;17.65;14.00;;;;;;;;;;10109402;28;20033;-76
2022/10/15 23:57:00;;;;;;;21.05;15.30;;;;;;;;;;10103883;28;20063;-76
